KISN/ISN METAR and TAF weather

Enter ICAO airport designator
Station Type Date Time Source
KISN METAR 2019/02/23 00:52 UTC NOAA

KISN 230052Z AUTO 00000KT 10SM CLR M16/M18 A2997 RMK AO2 SLP211 T11561183


Station Type Date Time Source
KISN Decoded METAR 2019/02/23 00:52 UTC NOAA

SLOULIN FIELD INTERNATIONAL AIRPORT, ND, United States (KISN) 48-11N 103-39W 579M
Feb 22, 2019 - 07:52 PM EST / 2019.02.23 0052 UTC
Wind: Calm:0
Visibility: 10 mile(s):0
Sky conditions: clear
Temperature: 3.9 F (-15.6 C)
Dew Point: -0.9 F (-18.3 C)
Relative Humidity: 79%
Pressure (altimeter): 29.97 in. Hg (1014 hPa)
ob: KISN 230052Z AUTO 00000KT 10SM CLR M16/M18 A2997 RMK AO2 SLP211 T11561183
cycle: 1

Station Type Date Time Source
KISN TAF 2019/02/22 18:27 UTC NOAA

TAF KISN 221725Z 2218/2318 17005KT P6SM FEW250
FM230100 13006KT P6SM BKN180
FM230600 16005KT P6SM SCT120
FM231000 VRB04KT P6SM SCT030
FM231600 20005KT P6SM SCT190


Example: see airport list